createdAt,value
2018-04-12T00:00:29.242Z,0
2018-04-12T00:01:30.630Z,0
2018-04-12T00:02:32.016Z,0
2018-04-12T00:03:33.399Z,0
2018-04-12T00:04:34.786Z,0
2018-04-12T00:05:36.175Z,0
2018-04-12T00:06:37.563Z,0
2018-04-12T00:07:38.946Z,0
2018-04-12T00:08:40.331Z,0
2018-04-12T00:09:41.716Z,0
2018-04-12T00:10:43.101Z,0
2018-04-12T00:11:44.490Z,0
2018-04-12T00:12:45.873Z,0
2018-04-12T00:13:47.261Z,0
2018-04-12T00:14:48.642Z,0
2018-04-12T00:15:50.027Z,0
2018-04-12T00:16:51.413Z,0
2018-04-12T00:17:52.800Z,0
2018-04-12T00:18:54.186Z,0
2018-04-12T00:19:55.662Z,0
2018-04-12T00:20:57.069Z,0
2018-04-12T00:21:58.452Z,0
2018-04-12T00:22:59.840Z,0
2018-04-12T00:24:01.222Z,0
2018-04-12T00:25:02.611Z,0
2018-04-12T00:26:03.998Z,0
2018-04-12T00:27:05.382Z,0
2018-04-12T00:28:06.772Z,0
2018-04-12T00:29:08.159Z,0
2018-04-12T00:30:09.544Z,0
2018-04-12T00:31:10.934Z,0
2018-04-12T00:32:12.320Z,0
2018-04-12T00:33:13.705Z,0
2018-04-12T00:34:15.092Z,0
2018-04-12T00:35:16.476Z,0
2018-04-12T00:36:17.862Z,0
2018-04-12T00:37:19.244Z,0
2018-04-12T00:38:20.628Z,0
2018-04-12T00:39:22.014Z,0
2018-04-12T00:40:23.400Z,0
2018-04-12T00:41:24.790Z,0
2018-04-12T00:42:26.179Z,0
2018-04-12T00:43:27.564Z,0
2018-04-12T00:44:28.950Z,0
2018-04-12T00:45:30.338Z,0
2018-04-12T00:46:31.724Z,0
2018-04-12T00:47:33.106Z,0
2018-04-12T00:48:34.497Z,0
2018-04-12T00:49:35.880Z,0
2018-04-12T00:50:37.263Z,0
2018-04-12T00:51:38.645Z,0
2018-04-12T00:52:40.033Z,0
2018-04-12T00:53:41.418Z,0
2018-04-12T00:54:42.805Z,0
2018-04-12T00:55:44.192Z,0
2018-04-12T00:56:45.599Z,0
2018-04-12T00:57:46.962Z,0
2018-04-12T00:58:48.344Z,0
2018-04-12T00:59:49.732Z,0
2018-04-12T01:00:51.134Z,0
2018-04-12T01:01:52.502Z,0
2018-04-12T01:02:53.889Z,0
2018-04-12T01:03:55.274Z,0
2018-04-12T01:04:56.664Z,0
2018-04-12T01:05:58.047Z,0
2018-04-12T01:06:59.433Z,0
2018-04-12T01:08:00.824Z,0
2018-04-12T01:09:02.213Z,0
2018-04-12T01:10:03.645Z,0
2018-04-12T01:11:05.040Z,0
2018-04-12T01:12:06.422Z,0
2018-04-12T01:13:07.804Z,0
2018-04-12T01:14:09.187Z,0
2018-04-12T01:15:10.574Z,0
2018-04-12T01:16:11.961Z,0
2018-04-12T01:17:13.350Z,0
2018-04-12T01:18:14.733Z,0
2018-04-12T01:19:16.117Z,0
2018-04-12T01:20:17.502Z,0
2018-04-12T01:21:18.882Z,0
2018-04-12T01:22:20.270Z,0
2018-04-12T01:23:21.665Z,0
2018-04-12T01:24:23.052Z,0
2018-04-12T01:25:24.437Z,0
2018-04-12T01:26:25.823Z,0
2018-04-12T01:27:27.212Z,0
2018-04-12T01:28:28.590Z,0
2018-04-12T01:29:29.977Z,0
2018-04-12T01:30:31.366Z,0
2018-04-12T01:31:32.753Z,0
2018-04-12T01:32:34.138Z,0
2018-04-12T01:33:35.520Z,0
2018-04-12T01:34:36.917Z,0
2018-04-12T01:35:38.300Z,0
2018-04-12T01:36:39.694Z,0
2018-04-12T01:37:41.083Z,0
2018-04-12T01:38:42.471Z,0
2018-04-12T01:39:43.857Z,0
2018-04-12T01:40:45.239Z,0
2018-04-12T01:41:46.640Z,0
2018-04-12T01:42:48.025Z,0
2018-04-12T01:43:49.412Z,0
2018-04-12T01:44:50.797Z,0
2018-04-12T01:45:52.184Z,0
2018-04-12T01:46:53.571Z,0
2018-04-12T01:47:54.957Z,0
2018-04-12T01:48:56.339Z,0
2018-04-12T01:49:57.718Z,0
2018-04-12T01:50:59.101Z,0
2018-04-12T01:52:00.485Z,0
2018-04-12T01:53:01.873Z,0
2018-04-12T01:54:03.262Z,0
2018-04-12T01:55:04.646Z,0
2018-04-12T01:56:06.031Z,0
2018-04-12T01:57:07.416Z,0
2018-04-12T01:58:08.801Z,0
2018-04-12T01:59:10.190Z,0
2018-04-12T02:00:11.576Z,0
2018-04-12T02:01:13.031Z,0
2018-04-12T02:02:14.419Z,0
2018-04-12T02:03:15.800Z,0
2018-04-12T02:04:17.187Z,0
2018-04-12T02:05:18.570Z,0
2018-04-12T02:06:19.960Z,0
2018-04-12T02:07:21.344Z,0
2018-04-12T02:08:22.732Z,0
2018-04-12T02:09:24.119Z,0
2018-04-12T02:10:25.502Z,0
2018-04-12T02:11:26.885Z,0
2018-04-12T02:12:28.272Z,0
2018-04-12T02:13:29.662Z,0
2018-04-12T02:14:31.047Z,0
2018-04-12T02:15:32.435Z,0
2018-04-12T02:16:33.816Z,0
2018-04-12T02:17:35.201Z,0
2018-04-12T02:18:36.586Z,0
2018-04-12T02:19:37.969Z,0
2018-04-12T02:20:39.356Z,0
2018-04-12T02:21:40.748Z,0
2018-04-12T02:22:42.127Z,0
2018-04-12T02:23:43.512Z,0
2018-04-12T02:24:44.898Z,0
2018-04-12T02:25:46.284Z,0
2018-04-12T02:26:47.665Z,0
2018-04-12T02:27:49.052Z,0
2018-04-12T02:28:50.440Z,0
2018-04-12T02:29:51.824Z,0
2018-04-12T02:30:53.212Z,0
2018-04-12T02:31:54.589Z,0
2018-04-12T02:32:55.975Z,0
2018-04-12T02:33:57.359Z,0
2018-04-12T02:34:58.750Z,0
2018-04-12T02:36:00.134Z,0
2018-04-12T02:37:01.525Z,0
2018-04-12T02:38:02.912Z,0
2018-04-12T02:39:04.296Z,0
2018-04-12T02:40:05.679Z,0
2018-04-12T02:41:07.066Z,0
2018-04-12T02:42:08.449Z,0
2018-04-12T02:43:09.836Z,0
2018-04-12T02:44:11.220Z,0
2018-04-12T02:45:12.603Z,0
2018-04-12T02:46:13.984Z,0
2018-04-12T02:47:15.368Z,0
2018-04-12T02:48:16.752Z,0
2018-04-12T02:49:18.137Z,0
2018-04-12T02:50:19.525Z,0
2018-04-12T02:51:20.930Z,0
2018-04-12T02:52:22.324Z,0
2018-04-12T02:53:23.711Z,0
2018-04-12T02:54:25.095Z,0
2018-04-12T02:55:26.477Z,0
2018-04-12T02:56:27.863Z,0
2018-04-12T02:57:29.250Z,0
2018-04-12T02:58:30.636Z,0
2018-04-12T02:59:32.020Z,0
2018-04-12T03:00:33.401Z,0
2018-04-12T03:01:34.792Z,0
2018-04-12T03:02:36.178Z,0
2018-04-12T03:03:37.556Z,0
2018-04-12T03:04:38.942Z,0
2018-04-12T03:05:40.326Z,0
2018-04-12T03:06:41.711Z,0
2018-04-12T03:07:43.095Z,0
2018-04-12T03:08:44.479Z,0
2018-04-12T03:09:45.863Z,0
2018-04-12T03:10:47.246Z,0
2018-04-12T03:11:48.631Z,0
2018-04-12T03:12:50.019Z,0
2018-04-12T03:13:51.399Z,0
2018-04-12T03:14:52.784Z,0
2018-04-12T03:15:54.167Z,0
2018-04-12T03:16:55.551Z,0
2018-04-12T03:17:56.936Z,0
2018-04-12T03:18:58.321Z,0
2018-04-12T03:19:59.710Z,0
2018-04-12T03:21:01.093Z,0
2018-04-12T03:22:02.475Z,0
2018-04-12T03:23:03.858Z,0
2018-04-12T03:24:05.243Z,0
2018-04-12T03:25:06.629Z,0
2018-04-12T03:26:08.018Z,0
2018-04-12T03:27:09.400Z,0
2018-04-12T03:28:10.821Z,0
2018-04-12T03:29:12.207Z,0
2018-04-12T03:30:13.596Z,0
2018-04-12T03:31:14.978Z,0
2018-04-12T03:32:16.363Z,0
2018-04-12T03:33:17.747Z,0
2018-04-12T03:34:19.167Z,0
2018-04-12T03:35:20.547Z,0
2018-04-12T03:36:21.931Z,0
2018-04-12T03:37:23.315Z,0
2018-04-12T03:38:24.700Z,0
2018-04-12T03:39:26.089Z,0
2018-04-12T03:40:27.472Z,0
2018-04-12T03:41:28.883Z,0
2018-04-12T03:42:30.287Z,0
2018-04-12T03:43:31.694Z,0
2018-04-12T03:44:33.077Z,0
2018-04-12T03:45:34.463Z,0
2018-04-12T03:46:35.863Z,0
2018-04-12T03:47:37.235Z,0
2018-04-12T03:48:38.718Z,0
2018-04-12T03:49:40.016Z,0
2018-04-12T03:50:41.352Z,0
2018-04-12T03:51:42.735Z,0
2018-04-12T03:52:44.122Z,0
2018-04-12T03:53:45.506Z,0
2018-04-12T03:54:46.890Z,0
2018-04-12T03:55:48.276Z,0
2018-04-12T03:56:49.658Z,0
2018-04-12T03:57:51.043Z,0
2018-04-12T03:58:52.428Z,0
2018-04-12T03:59:53.813Z,0
2018-04-12T04:00:55.199Z,0
2018-04-12T04:01:56.587Z,0
2018-04-12T04:02:57.973Z,0
2018-04-12T04:03:59.357Z,0
2018-04-12T04:05:00.743Z,0
2018-04-12T04:06:02.128Z,0
2018-04-12T04:07:03.517Z,0
2018-04-12T04:08:04.903Z,0
2018-04-12T04:09:06.289Z,0
2018-04-12T04:10:07.676Z,0
2018-04-12T04:11:09.061Z,0
2018-04-12T04:12:10.444Z,0
2018-04-12T04:13:11.828Z,0
2018-04-12T04:14:13.212Z,0
2018-04-12T04:15:14.597Z,0
2018-04-12T04:16:15.985Z,0
2018-04-12T04:17:17.366Z,0
2018-04-12T04:18:18.750Z,0
2018-04-12T04:19:20.131Z,0
2018-04-12T04:20:21.516Z,0
2018-04-12T04:21:22.900Z,0
2018-04-12T04:22:24.283Z,0
2018-04-12T04:23:25.672Z,0
2018-04-12T04:24:27.058Z,0
2018-04-12T04:25:28.441Z,0
2018-04-12T04:26:29.827Z,0
2018-04-12T04:27:31.221Z,0
2018-04-12T04:28:32.604Z,0
2018-04-12T04:29:33.992Z,0
2018-04-12T04:30:35.388Z,0
2018-04-12T04:31:36.761Z,0
2018-04-12T04:32:38.185Z,0
2018-04-12T04:33:39.606Z,0
2018-04-12T04:34:40.988Z,0
2018-04-12T04:35:42.375Z,0
2018-04-12T04:36:43.763Z,0
2018-04-12T04:37:45.146Z,0
2018-04-12T04:38:46.547Z,0
2018-04-12T04:39:47.959Z,0
2018-04-12T04:40:49.317Z,0
2018-04-12T04:41:50.704Z,0
2018-04-12T04:42:52.090Z,0
2018-04-12T04:43:53.476Z,0
2018-04-12T04:44:54.865Z,0
2018-04-12T04:45:56.255Z,0
2018-04-12T04:46:57.824Z,0
2018-04-12T04:47:59.209Z,0
2018-04-12T04:49:00.591Z,0
2018-04-12T04:50:01.980Z,0
2018-04-12T04:51:03.372Z,0
2018-04-12T04:52:04.759Z,0
2018-04-12T04:53:06.148Z,0
2018-04-12T04:54:07.529Z,0
2018-04-12T04:55:08.915Z,0
2018-04-12T04:56:10.303Z,0
2018-04-12T04:57:11.686Z,5
2018-04-12T04:58:13.070Z,5
2018-04-12T04:59:14.458Z,5
2018-04-12T05:00:15.844Z,5
2018-04-12T05:01:17.232Z,5
2018-04-12T05:02:18.620Z,5
2018-04-12T05:03:20.011Z,5
2018-04-12T05:04:21.395Z,5
2018-04-12T05:05:22.781Z,5
2018-04-12T05:06:24.170Z,5
2018-04-12T05:07:25.556Z,5
2018-04-12T05:08:26.943Z,5
2018-04-12T05:09:28.329Z,11
2018-04-12T05:10:29.722Z,11
2018-04-12T05:11:31.152Z,11
2018-04-12T05:12:32.497Z,11
2018-04-12T05:13:33.888Z,11
2018-04-12T05:14:35.278Z,11
2018-04-12T05:15:36.679Z,11
2018-04-12T05:16:38.051Z,16
2018-04-12T05:17:39.441Z,16
2018-04-12T05:18:40.830Z,16
2018-04-12T05:19:42.230Z,16
2018-04-12T05:20:43.619Z,16
2018-04-12T05:21:45.009Z,16
2018-04-12T05:22:46.412Z,16
2018-04-12T05:23:47.812Z,16
2018-04-12T05:24:49.201Z,16
2018-04-12T05:25:50.589Z,22
2018-04-12T05:26:51.977Z,22
2018-04-12T05:27:53.436Z,22
2018-04-12T05:28:54.770Z,22
2018-04-12T05:29:56.154Z,22
2018-04-12T05:30:57.543Z,22
2018-04-12T05:31:58.932Z,22
2018-04-12T05:33:00.315Z,22
2018-04-12T05:34:01.705Z,22
2018-04-12T05:35:03.094Z,22
2018-04-12T05:36:04.481Z,22
2018-04-12T05:37:05.869Z,22
2018-04-12T05:38:07.255Z,22
2018-04-12T05:39:08.648Z,22
2018-04-12T05:40:10.063Z,22
2018-04-12T05:41:11.417Z,28
2018-04-12T05:42:12.807Z,28
2018-04-12T05:43:14.195Z,28
2018-04-12T05:44:15.584Z,28
2018-04-12T05:45:16.969Z,28
2018-04-12T05:46:18.379Z,28
2018-04-12T05:47:19.746Z,28
2018-04-12T05:48:21.136Z,28
2018-04-12T05:49:22.519Z,28
2018-04-12T05:50:23.914Z,33
2018-04-12T05:51:25.292Z,33
2018-04-12T05:52:26.680Z,33
2018-04-12T05:53:28.067Z,33
2018-04-12T05:54:29.464Z,33
2018-04-12T05:55:30.854Z,33
2018-04-12T05:56:32.240Z,33
2018-04-12T05:57:33.627Z,33
2018-04-12T05:58:35.013Z,33
2018-04-12T05:59:36.400Z,33
2018-04-12T06:00:37.789Z,33
2018-04-12T06:01:39.178Z,33
2018-04-12T06:02:40.568Z,33
2018-04-12T06:03:41.957Z,33
2018-04-12T06:04:43.361Z,33
2018-04-12T06:05:44.743Z,33
2018-04-12T06:06:46.132Z,33
2018-04-12T06:07:47.518Z,33
2018-04-12T06:08:48.905Z,33
2018-04-12T06:09:50.298Z,33
2018-04-12T06:10:51.687Z,33
2018-04-12T06:11:53.074Z,33
2018-04-12T06:12:54.464Z,33
2018-04-12T06:13:55.870Z,39
2018-04-12T06:14:57.268Z,39
2018-04-12T06:15:58.654Z,39
2018-04-12T06:17:00.040Z,45
2018-04-12T06:18:01.432Z,45
2018-04-12T06:19:02.821Z,50
2018-04-12T06:20:04.210Z,50
2018-04-12T06:21:05.597Z,56
2018-04-12T06:22:06.985Z,56
2018-04-12T06:23:08.374Z,56
2018-04-12T06:24:09.763Z,56
2018-04-12T06:25:11.167Z,56
2018-04-12T06:26:12.556Z,56
2018-04-12T06:27:13.949Z,56
2018-04-12T06:28:15.332Z,61
2018-04-12T06:29:16.732Z,61
2018-04-12T06:30:18.116Z,61
2018-04-12T06:31:19.504Z,61
2018-04-12T06:32:20.893Z,56
2018-04-12T06:33:22.286Z,56
2018-04-12T06:34:23.672Z,56
2018-04-12T06:35:25.060Z,56
2018-04-12T06:36:26.452Z,50
2018-04-12T06:37:27.839Z,50
2018-04-12T06:38:29.231Z,50
2018-04-12T06:39:30.621Z,50
2018-04-12T06:40:32.019Z,50
2018-04-12T06:41:33.402Z,50
2018-04-12T06:42:34.789Z,50
2018-04-12T06:43:36.179Z,50
2018-04-12T06:44:37.567Z,50
2018-04-12T06:45:38.959Z,50
2018-04-12T06:46:40.348Z,50
2018-04-12T06:47:41.735Z,50
2018-04-12T06:48:43.124Z,50
2018-04-12T06:49:44.518Z,50
2018-04-12T06:50:45.900Z,50
2018-04-12T06:51:47.288Z,50
2018-04-12T06:52:48.677Z,50
2018-04-12T06:53:50.070Z,45
2018-04-12T06:54:51.458Z,45
2018-04-12T06:55:52.856Z,45
2018-04-12T06:56:54.243Z,45
2018-04-12T06:57:55.646Z,45
2018-04-12T06:58:57.037Z,45
2018-04-12T06:59:58.430Z,45
2018-04-12T07:00:59.814Z,45
2018-04-12T07:02:01.205Z,45
2018-04-12T07:03:02.590Z,45
2018-04-12T07:04:04.020Z,45
2018-04-12T07:05:05.493Z,50
2018-04-12T07:06:06.888Z,56
2018-04-12T07:07:08.290Z,61
2018-04-12T07:08:09.680Z,67
2018-04-12T07:09:11.072Z,67
2018-04-12T07:10:12.465Z,67
2018-04-12T07:11:13.852Z,67
2018-04-12T07:12:15.242Z,73
2018-04-12T07:13:16.634Z,78
2018-04-12T07:14:18.025Z,84
2018-04-12T07:15:19.417Z,84
2018-04-12T07:16:20.809Z,90
2018-04-12T07:17:22.205Z,90
2018-04-12T07:18:23.587Z,90
2018-04-12T07:19:24.974Z,90
2018-04-12T07:20:26.367Z,90
2018-04-12T07:21:27.762Z,101
2018-04-12T07:22:29.154Z,90
2018-04-12T07:23:30.545Z,95
2018-04-12T07:24:31.935Z,106
2018-04-12T07:25:33.325Z,95
2018-04-12T07:26:34.716Z,95
2018-04-12T07:27:36.105Z,95
2018-04-12T07:28:37.497Z,95
2018-04-12T07:29:38.891Z,95
2018-04-12T07:30:40.283Z,95
2018-04-12T07:31:41.672Z,95
2018-04-12T07:32:43.069Z,95
2018-04-12T07:33:44.455Z,95
2018-04-12T07:34:45.850Z,90
2018-04-12T07:35:47.247Z,90
2018-04-12T07:36:48.632Z,95
2018-04-12T07:37:50.031Z,95
2018-04-12T07:38:51.422Z,101
2018-04-12T07:39:52.814Z,101
2018-04-12T07:40:54.205Z,95
2018-04-12T07:41:55.595Z,106
2018-04-12T07:42:56.987Z,112
2018-04-12T07:43:58.382Z,118
2018-04-12T07:44:59.773Z,123
2018-04-12T07:46:01.179Z,129
2018-04-12T07:47:02.566Z,129
2018-04-12T07:48:03.963Z,129
2018-04-12T07:49:05.354Z,118
2018-04-12T07:50:06.750Z,101
2018-04-12T07:51:08.148Z,123
2018-04-12T07:52:09.539Z,135
2018-04-12T07:53:10.930Z,140
2018-04-12T07:54:12.360Z,168
2018-04-12T07:55:13.800Z,174
2018-04-12T07:56:15.198Z,191
2018-04-12T07:57:16.589Z,213
2018-04-12T07:58:17.982Z,219
2018-04-12T07:59:19.433Z,191
2018-04-12T08:00:20.824Z,146
2018-04-12T08:01:22.214Z,174
2018-04-12T08:02:23.605Z,185
2018-04-12T08:03:25.031Z,174
2018-04-12T08:04:26.431Z,180
2018-04-12T08:05:27.821Z,157
2018-04-12T08:06:29.254Z,140
2018-04-12T08:07:30.647Z,151
2018-04-12T08:08:32.039Z,135
2018-04-12T08:09:33.432Z,146
2018-04-12T08:10:34.830Z,146
2018-04-12T08:11:36.222Z,146
2018-04-12T08:12:37.616Z,135
2018-04-12T08:13:39.016Z,129
2018-04-12T08:14:40.402Z,118
2018-04-12T08:15:41.796Z,123
2018-04-12T08:16:43.194Z,123
2018-04-12T08:17:44.587Z,129
2018-04-12T08:18:45.985Z,129
2018-04-12T08:19:47.378Z,129
2018-04-12T08:20:48.778Z,129
2018-04-12T08:21:50.164Z,129
2018-04-12T08:22:51.560Z,129
2018-04-12T08:23:52.955Z,135
2018-04-12T08:24:54.391Z,140
2018-04-12T08:25:55.742Z,146
2018-04-12T08:26:57.138Z,146
2018-04-12T08:27:58.537Z,146
2018-04-12T08:28:59.929Z,157
2018-04-12T08:30:01.326Z,174
2018-04-12T08:31:02.719Z,174
2018-04-12T08:32:04.116Z,174
2018-04-12T08:33:05.509Z,191
2018-04-12T08:34:06.908Z,185
2018-04-12T08:35:08.298Z,191
2018-04-12T08:36:09.694Z,196
2018-04-12T08:37:11.092Z,191
2018-04-12T08:38:12.482Z,196
2018-04-12T08:39:13.881Z,191
2018-04-12T08:40:15.276Z,196
2018-04-12T08:41:16.673Z,208
2018-04-12T08:42:18.068Z,202
2018-04-12T08:43:19.459Z,191
2018-04-12T08:44:20.920Z,191
2018-04-12T08:45:22.392Z,174
2018-04-12T08:46:23.789Z,174
2018-04-12T08:47:25.188Z,174
2018-04-12T08:48:26.583Z,157
2018-04-12T08:49:27.980Z,163
2018-04-12T08:50:29.374Z,163
2018-04-12T08:51:30.766Z,151
2018-04-12T08:52:32.162Z,157
2018-04-12T08:53:33.555Z,157
2018-04-12T08:54:34.959Z,157
2018-04-12T08:55:36.355Z,157
2018-04-12T08:56:37.750Z,157
2018-04-12T08:57:39.137Z,163
2018-04-12T08:58:40.535Z,168
2018-04-12T08:59:41.936Z,168
2018-04-12T09:00:43.329Z,168
2018-04-12T09:01:44.732Z,163
2018-04-12T09:02:46.127Z,174
2018-04-12T09:03:47.521Z,180
2018-04-12T09:04:48.913Z,180
2018-04-12T09:05:50.309Z,185
2018-04-12T09:06:51.703Z,196
2018-04-12T09:07:53.100Z,202
2018-04-12T09:08:54.495Z,208
2018-04-12T09:09:55.892Z,213
2018-04-12T09:10:57.288Z,213
2018-04-12T09:11:58.686Z,219
2018-04-12T09:13:00.079Z,219
2018-04-12T09:14:01.474Z,225
2018-04-12T09:15:02.896Z,230
2018-04-12T09:16:04.296Z,236
2018-04-12T09:17:05.692Z,241
2018-04-12T09:18:07.087Z,247
2018-04-12T09:19:08.483Z,241
2018-04-12T09:20:09.875Z,241
2018-04-12T09:21:11.272Z,241
2018-04-12T09:22:12.665Z,241
2018-04-12T09:23:14.067Z,219
2018-04-12T09:24:15.463Z,202
2018-04-12T09:25:16.859Z,219
2018-04-12T09:26:18.249Z,225
2018-04-12T09:27:19.653Z,219
2018-04-12T09:28:21.054Z,213
2018-04-12T09:29:22.442Z,208
2018-04-12T09:30:23.839Z,202
2018-04-12T09:31:25.234Z,196
2018-04-12T09:32:26.631Z,202
2018-04-12T09:33:28.024Z,208
2018-04-12T09:34:29.475Z,219
2018-04-12T09:35:30.881Z,236
2018-04-12T09:36:32.288Z,247
2018-04-12T09:37:33.690Z,264
2018-04-12T09:38:35.084Z,303
2018-04-12T09:39:36.481Z,315
2018-04-12T09:40:37.874Z,326
2018-04-12T09:41:39.268Z,365
2018-04-12T09:42:40.663Z,365
2018-04-12T09:43:42.060Z,393
2018-04-12T09:44:43.449Z,348
2018-04-12T09:45:44.852Z,320
2018-04-12T09:46:46.246Z,337
2018-04-12T09:47:47.640Z,343
2018-04-12T09:48:49.034Z,348
2018-04-12T09:49:50.428Z,337
2018-04-12T09:50:51.823Z,315
2018-04-12T09:51:53.222Z,275
2018-04-12T09:52:54.618Z,253
2018-04-12T09:53:56.114Z,258
2018-04-12T09:54:57.513Z,236
2018-04-12T09:55:58.905Z,230
2018-04-12T09:57:00.301Z,230
2018-04-12T09:58:01.710Z,241
2018-04-12T09:59:03.106Z,253
2018-04-12T10:00:04.573Z,264
2018-04-12T10:01:05.933Z,286
2018-04-12T10:02:07.322Z,315
2018-04-12T10:03:08.718Z,326
2018-04-12T10:04:10.107Z,343
2018-04-12T10:05:11.502Z,354
2018-04-12T10:06:12.901Z,399
2018-04-12T10:07:14.302Z,528
2018-04-12T10:08:15.697Z,511
2018-04-12T10:09:17.095Z,523
2018-04-12T10:10:18.488Z,590
2018-04-12T10:11:19.883Z,528
2018-04-12T10:12:21.284Z,568
2018-04-12T10:13:22.685Z,551
2018-04-12T10:14:24.083Z,556
2018-04-12T10:15:25.484Z,556
2018-04-12T10:16:26.878Z,540
2018-04-12T10:17:28.277Z,540
2018-04-12T10:18:29.670Z,568
2018-04-12T10:19:31.069Z,562
2018-04-12T10:20:32.468Z,551
2018-04-12T10:21:33.868Z,472
2018-04-12T10:22:35.268Z,517
2018-04-12T10:23:36.759Z,500
2018-04-12T10:24:38.181Z,630
2018-04-12T10:25:39.587Z,590
2018-04-12T10:26:40.985Z,472
2018-04-12T10:27:42.385Z,511
2018-04-12T10:28:43.839Z,478
2018-04-12T10:29:45.184Z,450
2018-04-12T10:30:46.579Z,376
2018-04-12T10:31:47.976Z,331
2018-04-12T10:32:49.383Z,303
2018-04-12T10:33:50.772Z,326
2018-04-12T10:34:52.170Z,399
2018-04-12T10:35:53.568Z,455
2018-04-12T10:36:54.975Z,371
2018-04-12T10:37:56.363Z,421
2018-04-12T10:38:57.756Z,427
2018-04-12T10:39:59.155Z,405
2018-04-12T10:41:00.552Z,376
2018-04-12T10:42:01.948Z,286
2018-04-12T10:43:03.347Z,393
2018-04-12T10:44:04.747Z,315
2018-04-12T10:45:06.140Z,247
2018-04-12T10:46:07.544Z,196
2018-04-12T10:47:08.938Z,185
2018-04-12T10:48:10.337Z,174
2018-04-12T10:49:11.734Z,151
2018-04-12T10:50:13.136Z,135
2018-04-12T10:51:14.537Z,123
2018-04-12T10:52:15.934Z,118
2018-04-12T10:53:17.325Z,106
2018-04-12T10:54:18.724Z,106
2018-04-12T10:55:20.120Z,101
2018-04-12T10:56:21.525Z,95
2018-04-12T10:57:22.923Z,84
2018-04-12T10:58:24.324Z,84
2018-04-12T10:59:25.749Z,84
2018-04-12T11:00:27.105Z,90
2018-04-12T11:01:28.500Z,106
2018-04-12T11:02:29.894Z,123
2018-04-12T11:03:31.294Z,140
2018-04-12T11:04:32.689Z,151
2018-04-12T11:05:34.085Z,163
2018-04-12T11:06:35.480Z,174
2018-04-12T11:07:36.879Z,180
2018-04-12T11:08:38.277Z,180
2018-04-12T11:09:39.677Z,185
2018-04-12T11:10:41.071Z,191
2018-04-12T11:11:42.507Z,191
2018-04-12T11:12:43.949Z,202
2018-04-12T11:13:45.359Z,213
2018-04-12T11:14:46.757Z,230
2018-04-12T11:15:48.150Z,253
2018-04-12T11:16:49.552Z,275
2018-04-12T11:17:50.946Z,303
2018-04-12T11:18:52.341Z,331
2018-04-12T11:19:53.740Z,376
2018-04-12T11:20:55.133Z,405
2018-04-12T11:21:56.528Z,438
2018-04-12T11:22:57.924Z,489
2018-04-12T11:23:59.320Z,540
2018-04-12T11:25:00.720Z,562
2018-04-12T11:26:02.135Z,568
2018-04-12T11:27:03.526Z,568
2018-04-12T11:28:04.912Z,596
2018-04-12T11:29:06.310Z,618
2018-04-12T11:30:07.708Z,646
2018-04-12T11:31:09.114Z,658
2018-04-12T11:32:10.513Z,675
2018-04-12T11:33:11.934Z,658
2018-04-12T11:34:13.341Z,675
2018-04-12T11:35:14.767Z,630
2018-04-12T11:36:16.153Z,416
2018-04-12T11:37:17.552Z,753
2018-04-12T11:38:18.948Z,753
2018-04-12T11:39:20.356Z,506
2018-04-12T11:40:21.767Z,714
2018-04-12T11:41:23.152Z,675
2018-04-12T11:42:24.549Z,675
2018-04-12T11:43:25.948Z,646
2018-04-12T11:44:27.344Z,573
2018-04-12T11:45:28.764Z,540
2018-04-12T11:46:30.146Z,517
2018-04-12T11:47:31.559Z,545
2018-04-12T11:48:32.958Z,534
2018-04-12T11:49:34.356Z,590
2018-04-12T11:50:35.756Z,590
2018-04-12T11:51:37.156Z,556
2018-04-12T11:52:38.554Z,675
2018-04-12T11:53:39.956Z,663
2018-04-12T11:54:41.356Z,781
2018-04-12T11:55:42.771Z,793
2018-04-12T11:56:44.164Z,770
2018-04-12T11:57:45.563Z,787
2018-04-12T11:58:46.962Z,810
2018-04-12T11:59:48.360Z,815
2018-04-12T12:00:49.839Z,804
2018-04-12T12:01:51.290Z,804
2018-04-12T12:02:52.698Z,821
2018-04-12T12:03:54.114Z,804
2018-04-12T12:04:55.515Z,810
2018-04-12T12:05:56.913Z,804
2018-04-12T12:06:58.364Z,810
2018-04-12T12:07:59.725Z,798
2018-04-12T12:09:01.132Z,483
2018-04-12T12:10:02.554Z,731
2018-04-12T12:11:03.957Z,765
2018-04-12T12:12:05.351Z,793
2018-04-12T12:13:06.750Z,753
2018-04-12T12:14:08.153Z,765
2018-04-12T12:15:09.553Z,759
2018-04-12T12:16:10.953Z,759
2018-04-12T12:17:12.358Z,742
2018-04-12T12:18:13.757Z,736
2018-04-12T12:19:15.163Z,736
2018-04-12T12:20:16.560Z,742
2018-04-12T12:21:17.971Z,731
2018-04-12T12:22:19.378Z,736
2018-04-12T12:23:20.775Z,736
2018-04-12T12:24:22.209Z,720
2018-04-12T12:25:23.610Z,725
2018-04-12T12:26:25.010Z,725
2018-04-12T12:27:26.409Z,720
2018-04-12T12:28:27.861Z,725
2018-04-12T12:29:29.208Z,720
2018-04-12T12:30:30.612Z,720
2018-04-12T12:31:32.015Z,708
2018-04-12T12:32:33.416Z,703
2018-04-12T12:33:34.827Z,725
2018-04-12T12:34:36.227Z,731
2018-04-12T12:35:37.628Z,714
2018-04-12T12:36:39.030Z,703
2018-04-12T12:37:40.434Z,663
2018-04-12T12:38:41.841Z,635
2018-04-12T12:39:43.283Z,551
2018-04-12T12:40:44.683Z,590
2018-04-12T12:41:46.086Z,675
2018-04-12T12:42:47.488Z,703
2018-04-12T12:43:48.934Z,686
2018-04-12T12:44:50.296Z,658
2018-04-12T12:45:51.697Z,691
2018-04-12T12:46:53.102Z,630
2018-04-12T12:47:54.503Z,596
2018-04-12T12:48:55.960Z,703
2018-04-12T12:49:57.403Z,697
2018-04-12T12:50:58.805Z,675
2018-04-12T12:52:00.219Z,686
2018-04-12T12:53:01.622Z,680
2018-04-12T12:54:03.027Z,646
2018-04-12T12:55:04.446Z,646
2018-04-12T12:56:05.863Z,635
2018-04-12T12:57:07.249Z,652
2018-04-12T12:58:08.654Z,635
2018-04-12T12:59:10.058Z,635
2018-04-12T13:00:11.461Z,641
2018-04-12T13:01:12.860Z,635
2018-04-12T13:02:14.272Z,646
2018-04-12T13:03:15.667Z,652
2018-04-12T13:04:17.071Z,652
2018-04-12T13:05:18.474Z,658
2018-04-12T13:06:19.878Z,630
2018-04-12T13:07:21.280Z,635
2018-04-12T13:08:22.684Z,635
2018-04-12T13:09:24.087Z,618
2018-04-12T13:10:25.489Z,635
2018-04-12T13:11:26.890Z,630
2018-04-12T13:12:28.292Z,630
2018-04-12T13:13:29.694Z,641
2018-04-12T13:14:31.101Z,421
2018-04-12T13:15:32.503Z,326
2018-04-12T13:16:33.903Z,303
2018-04-12T13:17:35.306Z,315
2018-04-12T13:18:36.707Z,399
2018-04-12T13:19:38.109Z,478
2018-04-12T13:20:39.514Z,472
2018-04-12T13:21:40.913Z,551
2018-04-12T13:22:42.314Z,686
2018-04-12T13:23:43.727Z,663
2018-04-12T13:24:45.132Z,635
2018-04-12T13:25:46.569Z,652
2018-04-12T13:26:47.941Z,613
2018-04-12T13:27:49.343Z,618
2018-04-12T13:28:50.749Z,607
2018-04-12T13:29:52.148Z,579
2018-04-12T13:30:53.552Z,517
2018-04-12T13:31:54.953Z,540
2018-04-12T13:32:56.364Z,511
2018-04-12T13:33:57.760Z,489
2018-04-12T13:34:59.163Z,438
2018-04-12T13:36:00.567Z,444
2018-04-12T13:37:01.978Z,466
2018-04-12T13:38:03.433Z,450
2018-04-12T13:39:04.834Z,444
2018-04-12T13:40:06.235Z,427
2018-04-12T13:41:07.636Z,421
2018-04-12T13:42:09.047Z,393
2018-04-12T13:43:10.439Z,376
2018-04-12T13:44:11.840Z,360
2018-04-12T13:45:13.239Z,343
2018-04-12T13:46:14.637Z,331
2018-04-12T13:47:16.035Z,331
2018-04-12T13:48:17.440Z,326
2018-04-12T13:49:18.849Z,343
2018-04-12T13:50:20.249Z,343
2018-04-12T13:51:21.648Z,326
2018-04-12T13:52:23.052Z,348
2018-04-12T13:53:24.448Z,376
2018-04-12T13:54:25.849Z,416
2018-04-12T13:55:27.251Z,416
2018-04-12T13:56:28.650Z,416
2018-04-12T13:57:30.060Z,410
2018-04-12T13:58:31.460Z,410
2018-04-12T13:59:32.857Z,410
2018-04-12T14:00:34.268Z,405
2018-04-12T14:01:35.665Z,399
2018-04-12T14:02:37.068Z,410
2018-04-12T14:03:38.469Z,388
2018-04-12T14:04:39.908Z,354
2018-04-12T14:05:41.285Z,348
2018-04-12T14:06:42.682Z,343
2018-04-12T14:07:44.085Z,354
2018-04-12T14:08:45.481Z,337
2018-04-12T14:09:46.884Z,348
2018-04-12T14:10:48.360Z,354
2018-04-12T14:11:49.709Z,354
2018-04-12T14:12:51.109Z,371
2018-04-12T14:13:52.510Z,360
2018-04-12T14:14:53.907Z,382
2018-04-12T14:15:55.308Z,393
2018-04-12T14:16:56.709Z,438
2018-04-12T14:17:58.110Z,393
2018-04-12T14:18:59.512Z,421
2018-04-12T14:20:00.907Z,421
2018-04-12T14:21:02.309Z,365
2018-04-12T14:22:03.707Z,292
2018-04-12T14:23:05.108Z,258
2018-04-12T14:24:06.507Z,292
2018-04-12T14:25:07.909Z,258
2018-04-12T14:26:09.343Z,275
2018-04-12T14:27:10.757Z,247
2018-04-12T14:28:12.156Z,225
2018-04-12T14:29:13.556Z,191
2018-04-12T14:30:14.955Z,180
2018-04-12T14:31:16.356Z,174
2018-04-12T14:32:17.756Z,168